Terminal Aerodrome Forecast
Issued by NWS Quad Cities IA IL

Home | Current Version | Previous Version | Text Only | Print | Product List | Glossary On
Versions: 1 2 3 4 5 6 7 8 9 10 11 12 13 14 15 16 17 18 19 20 21 22 23 24 25 26
000
FTUS43 KDVN 280520
TAFDBQ
TAF
KDBQ 280520Z 2806/2906 13006KT P6SM OVC200
     FM281000 14006KT 6SM BR SCT200
     FM281300 15010KT P6SM SCT200 PROB30 2818/2822 5SM -TSRA
      BKN035CB
     FM282200 15008KT P6SM BKN100
      TEMPO 2822/2902 3SM TSRA BKN050CB=

USA.gov is the U.S. government's official web portal to all federal, state and local government web resources and services.